sensor_id;sensor_type;location;lat;lon;timestamp;temperature;humidity
59075;DHT22;44860;53.020;6.738;2023-07-24T00:02:07;17.60;99.90
59075;DHT22;44860;53.020;6.738;2023-07-24T00:04:32;17.50;99.90
59075;DHT22;44860;53.020;6.738;2023-07-24T00:06:59;17.50;99.90
59075;DHT22;44860;53.020;6.738;2023-07-24T00:09:24;17.50;99.90
59075;DHT22;44860;53.020;6.738;2023-07-24T00:11:50;17.50;99.90
59075;DHT22;44860;53.020;6.738;2023-07-24T00:14:16;17.50;99.90
59075;DHT22;44860;53.020;6.738;2023-07-24T00:16:42;17.40;99.90
59075;DHT22;44860;53.020;6.738;2023-07-24T00:19:08;17.40;99.90
59075;DHT22;44860;53.020;6.738;2023-07-24T00:21:33;17.40;99.90
59075;DHT22;44860;53.020;6.738;2023-07-24T00:23:59;17.40;99.90
59075;DHT22;44860;53.020;6.738;2023-07-24T00:26:25;17.40;99.90
59075;DHT22;44860;53.020;6.738;2023-07-24T00:28:50;17.40;99.90
59075;DHT22;44860;53.020;6.738;2023-07-24T00:31:16;17.30;99.90
59075;DHT22;44860;53.020;6.738;2023-07-24T00:33:42;17.30;99.90
59075;DHT22;44860;53.020;6.738;2023-07-24T00:36:07;17.30;99.90
59075;DHT22;44860;53.020;6.738;2023-07-24T00:38:33;17.30;99.90
59075;DHT22;44860;53.020;6.738;2023-07-24T00:40:59;17.30;99.90
59075;DHT22;44860;53.020;6.738;2023-07-24T00:43:24;17.30;99.90
59075;DHT22;44860;53.020;6.738;2023-07-24T00:45:50;17.30;99.90
59075;DHT22;44860;53.020;6.738;2023-07-24T00:48:16;17.20;99.90
59075;DHT22;44860;53.020;6.738;2023-07-24T00:50:43;17.20;99.90
59075;DHT22;44860;53.020;6.738;2023-07-24T00:53:11;17.20;99.90
59075;DHT22;44860;53.020;6.738;2023-07-24T00:55:37;17.20;99.90
59075;DHT22;44860;53.020;6.738;2023-07-24T00:58:03;17.20;99.90
59075;DHT22;44860;53.020;6.738;2023-07-24T01:00:29;17.20;99.90
59075;DHT22;44860;53.020;6.738;2023-07-24T01:02:55;17.10;99.90
59075;DHT22;44860;53.020;6.738;2023-07-24T01:05:23;17.10;99.90
59075;DHT22;44860;53.020;6.738;2023-07-24T01:07:50;17.10;99.90
59075;DHT22;44860;53.020;6.738;2023-07-24T01:10:16;17.10;99.90
59075;DHT22;44860;53.020;6.738;2023-07-24T01:17:50;17.00;99.90
59075;DHT22;44860;53.020;6.738;2023-07-24T01:20:19;17.00;99.90
59075;DHT22;44860;53.020;6.738;2023-07-24T01:23:29;17.00;99.90
59075;DHT22;44860;53.020;6.738;2023-07-24T01:26:01;17.00;99.90
59075;DHT22;44860;53.020;6.738;2023-07-24T01:28:30;17.00;99.90
59075;DHT22;44860;53.020;6.738;2023-07-24T01:30:56;17.10;99.90
59075;DHT22;44860;53.020;6.738;2023-07-24T01:33:22;17.10;99.90
59075;DHT22;44860;53.020;6.738;2023-07-24T01:35:53;17.10;99.90
59075;DHT22;44860;53.020;6.738;2023-07-24T01:38:19;17.10;99.90
59075;DHT22;44860;53.020;6.738;2023-07-24T01:40:45;17.10;99.90
59075;DHT22;44860;53.020;6.738;2023-07-24T01:43:11;17.10;99.90
59075;DHT22;44860;53.020;6.738;2023-07-24T01:45:37;17.10;99.90
59075;DHT22;44860;53.020;6.738;2023-07-24T01:48:04;17.10;99.90
59075;DHT22;44860;53.020;6.738;2023-07-24T01:50:31;17.10;99.90
59075;DHT22;44860;53.020;6.738;2023-07-24T01:52:56;17.10;99.90
59075;DHT22;44860;53.020;6.738;2023-07-24T01:55:22;17.10;99.90
59075;DHT22;44860;53.020;6.738;2023-07-24T01:57:48;17.10;99.90
59075;DHT22;44860;53.020;6.738;2023-07-24T02:00:13;17.20;99.90
59075;DHT22;44860;53.020;6.738;2023-07-24T02:02:39;17.10;99.90
59075;DHT22;44860;53.020;6.738;2023-07-24T02:05:05;17.20;99.90
59075;DHT22;44860;53.020;6.738;2023-07-24T02:07:31;17.20;99.90
59075;DHT22;44860;53.020;6.738;2023-07-24T02:09:56;17.10;99.90
59075;DHT22;44860;53.020;6.738;2023-07-24T02:12:22;17.20;99.90
59075;DHT22;44860;53.020;6.738;2023-07-24T02:14:48;17.10;99.90
59075;DHT22;44860;53.020;6.738;2023-07-24T02:17:18;17.10;99.90
59075;DHT22;44860;53.020;6.738;2023-07-24T02:19:44;17.10;99.90
59075;DHT22;44860;53.020;6.738;2023-07-24T02:22:10;17.10;99.90
59075;DHT22;44860;53.020;6.738;2023-07-24T02:24:36;17.10;99.90
59075;DHT22;44860;53.020;6.738;2023-07-24T02:27:02;17.10;99.90
59075;DHT22;44860;53.020;6.738;2023-07-24T02:29:28;17.10;99.90
59075;DHT22;44860;53.020;6.738;2023-07-24T02:31:54;17.10;99.90
59075;DHT22;44860;53.020;6.738;2023-07-24T02:34:20;17.10;99.90
59075;DHT22;44860;53.020;6.738;2023-07-24T02:36:52;17.10;99.90
59075;DHT22;44860;53.020;6.738;2023-07-24T02:39:19;17.10;99.90
59075;DHT22;44860;53.020;6.738;2023-07-24T02:41:44;17.10;99.90
59075;DHT22;44860;53.020;6.738;2023-07-24T02:44:10;17.00;99.90
59075;DHT22;44860;53.020;6.738;2023-07-24T02:46:36;17.00;99.90
59075;DHT22;44860;53.020;6.738;2023-07-24T02:49:02;17.00;99.90
59075;DHT22;44860;53.020;6.738;2023-07-24T02:51:27;17.10;99.90
59075;DHT22;44860;53.020;6.738;2023-07-24T02:53:54;17.00;99.90
59075;DHT22;44860;53.020;6.738;2023-07-24T02:56:20;17.00;99.90
59075;DHT22;44860;53.020;6.738;2023-07-24T02:58:46;17.00;99.90
59075;DHT22;44860;53.020;6.738;2023-07-24T03:01:12;17.00;99.90
59075;DHT22;44860;53.020;6.738;2023-07-24T03:03:40;17.00;99.90
59075;DHT22;44860;53.020;6.738;2023-07-24T03:06:06;16.90;99.90
59075;DHT22;44860;53.020;6.738;2023-07-24T03:08:32;17.00;99.90
59075;DHT22;44860;53.020;6.738;2023-07-24T03:10:58;16.90;99.90
59075;DHT22;44860;53.020;6.738;2023-07-24T03:13:24;17.00;99.90
59075;DHT22;44860;53.020;6.738;2023-07-24T03:15:53;17.00;99.90
59075;DHT22;44860;53.020;6.738;2023-07-24T03:18:19;17.00;99.90
59075;DHT22;44860;53.020;6.738;2023-07-24T03:20:45;16.90;99.90
59075;DHT22;44860;53.020;6.738;2023-07-24T03:23:11;16.90;99.90
59075;DHT22;44860;53.020;6.738;2023-07-24T03:25:36;16.90;99.90
59075;DHT22;44860;53.020;6.738;2023-07-24T03:28:02;16.90;99.90
59075;DHT22;44860;53.020;6.738;2023-07-24T03:30:28;16.90;99.90
59075;DHT22;44860;53.020;6.738;2023-07-24T03:32:53;16.90;99.90
59075;DHT22;44860;53.020;6.738;2023-07-24T03:35:19;16.90;99.90
59075;DHT22;44860;53.020;6.738;2023-07-24T03:37:45;16.90;99.90
59075;DHT22;44860;53.020;6.738;2023-07-24T03:40:11;16.90;99.90
59075;DHT22;44860;53.020;6.738;2023-07-24T03:42:37;16.90;99.90
59075;DHT22;44860;53.020;6.738;2023-07-24T03:45:03;16.90;99.90
59075;DHT22;44860;53.020;6.738;2023-07-24T03:47:28;16.90;99.90
59075;DHT22;44860;53.020;6.738;2023-07-24T03:49:54;16.90;99.90
59075;DHT22;44860;53.020;6.738;2023-07-24T03:52:20;16.90;99.90
59075;DHT22;44860;53.020;6.738;2023-07-24T03:54:46;16.90;99.90
59075;DHT22;44860;53.020;6.738;2023-07-24T03:57:12;16.90;99.90
59075;DHT22;44860;53.020;6.738;2023-07-24T03:59:38;16.90;99.90
59075;DHT22;44860;53.020;6.738;2023-07-24T04:02:04;16.90;99.90
59075;DHT22;44860;53.020;6.738;2023-07-24T04:04:30;16.90;99.90
59075;DHT22;44860;53.020;6.738;2023-07-24T04:06:56;16.90;99.90
59075;DHT22;44860;53.020;6.738;2023-07-24T04:09:22;16.90;99.90
59075;DHT22;44860;53.020;6.738;2023-07-24T04:11:47;16.90;99.90
59075;DHT22;44860;53.020;6.738;2023-07-24T04:14:13;16.80;99.90
59075;DHT22;44860;53.020;6.738;2023-07-24T04:16:39;16.90;99.90
59075;DHT22;44860;53.020;6.738;2023-07-24T04:19:04;16.90;99.90
59075;DHT22;44860;53.020;6.738;2023-07-24T04:21:30;16.90;99.90
59075;DHT22;44860;53.020;6.738;2023-07-24T04:23:56;16.90;99.90
59075;DHT22;44860;53.020;6.738;2023-07-24T04:26:22;16.90;99.90
59075;DHT22;44860;53.020;6.738;2023-07-24T04:28:47;16.90;99.90
59075;DHT22;44860;53.020;6.738;2023-07-24T04:31:13;16.90;99.90
59075;DHT22;44860;53.020;6.738;2023-07-24T04:33:39;16.90;99.90
59075;DHT22;44860;53.020;6.738;2023-07-24T04:36:05;16.90;99.90
59075;DHT22;44860;53.020;6.738;2023-07-24T04:38:30;16.90;99.90
59075;DHT22;44860;53.020;6.738;2023-07-24T04:40:56;16.90;99.90
59075;DHT22;44860;53.020;6.738;2023-07-24T04:43:22;16.90;99.90
59075;DHT22;44860;53.020;6.738;2023-07-24T04:45:47;16.90;99.90
59075;DHT22;44860;53.020;6.738;2023-07-24T04:48:13;16.90;99.90
59075;DHT22;44860;53.020;6.738;2023-07-24T04:50:39;16.90;99.90
59075;DHT22;44860;53.020;6.738;2023-07-24T04:53:04;16.90;99.90
59075;DHT22;44860;53.020;6.738;2023-07-24T04:55:30;16.90;99.90
59075;DHT22;44860;53.020;6.738;2023-07-24T04:57:56;16.90;99.90
59075;DHT22;44860;53.020;6.738;2023-07-24T05:00:21;16.90;99.90
59075;DHT22;44860;53.020;6.738;2023-07-24T05:02:47;16.90;99.90
59075;DHT22;44860;53.020;6.738;2023-07-24T05:05:12;16.90;99.90
59075;DHT22;44860;53.020;6.738;2023-07-24T05:07:38;16.90;99.90
59075;DHT22;44860;53.020;6.738;2023-07-24T05:10:04;17.00;99.90
59075;DHT22;44860;53.020;6.738;2023-07-24T05:12:30;17.00;99.90
59075;DHT22;44860;53.020;6.738;2023-07-24T05:14:56;16.90;99.90
59075;DHT22;44860;53.020;6.738;2023-07-24T05:17:21;17.00;99.90
59075;DHT22;44860;53.020;6.738;2023-07-24T05:19:47;17.00;99.90
59075;DHT22;44860;53.020;6.738;2023-07-24T05:22:13;17.00;99.90
59075;DHT22;44860;53.020;6.738;2023-07-24T05:24:38;17.00;99.90
59075;DHT22;44860;53.020;6.738;2023-07-24T05:27:05;17.00;99.90
59075;DHT22;44860;53.020;6.738;2023-07-24T05:29:31;17.00;99.90
59075;DHT22;44860;53.020;6.738;2023-07-24T05:31:57;17.00;99.90
59075;DHT22;44860;53.020;6.738;2023-07-24T05:34:24;17.00;99.90
59075;DHT22;44860;53.020;6.738;2023-07-24T05:36:50;17.00;99.90
59075;DHT22;44860;53.020;6.738;2023-07-24T05:39:16;17.00;99.90
59075;DHT22;44860;53.020;6.738;2023-07-24T05:41:41;17.00;99.90
59075;DHT22;44860;53.020;6.738;2023-07-24T05:44:07;17.10;99.90
59075;DHT22;44860;53.020;6.738;2023-07-24T05:46:33;17.10;99.90
59075;DHT22;44860;53.020;6.738;2023-07-24T05:48:58;17.10;99.90
59075;DHT22;44860;53.020;6.738;2023-07-24T05:51:26;17.10;99.90
59075;DHT22;44860;53.020;6.738;2023-07-24T05:53:51;17.10;99.90
59075;DHT22;44860;53.020;6.738;2023-07-24T05:56:17;17.20;99.90
59075;DHT22;44860;53.020;6.738;2023-07-24T05:58:43;17.20;99.90
59075;DHT22;44860;53.020;6.738;2023-07-24T06:01:08;17.20;99.90
59075;DHT22;44860;53.020;6.738;2023-07-24T06:03:35;17.20;99.90
59075;DHT22;44860;53.020;6.738;2023-07-24T06:06:01;17.20;99.90
59075;DHT22;44860;53.020;6.738;2023-07-24T06:08:27;17.20;99.90
59075;DHT22;44860;53.020;6.738;2023-07-24T06:10:53;17.30;99.90
59075;DHT22;44860;53.020;6.738;2023-07-24T06:13:19;17.30;99.90
59075;DHT22;44860;53.020;6.738;2023-07-24T06:15:47;17.30;99.90
59075;DHT22;44860;53.020;6.738;2023-07-24T06:18:12;17.30;99.90
59075;DHT22;44860;53.020;6.738;2023-07-24T06:20:38;17.30;99.90
59075;DHT22;44860;53.020;6.738;2023-07-24T06:23:04;17.30;99.90
59075;DHT22;44860;53.020;6.738;2023-07-24T06:25:30;17.30;99.90
59075;DHT22;44860;53.020;6.738;2023-07-24T06:27:57;17.40;99.90
59075;DHT22;44860;53.020;6.738;2023-07-24T06:30:23;17.40;99.90
59075;DHT22;44860;53.020;6.738;2023-07-24T06:32:48;17.40;99.90
59075;DHT22;44860;53.020;6.738;2023-07-24T06:35:14;17.40;99.90
59075;DHT22;44860;53.020;6.738;2023-07-24T06:37:40;17.40;99.90
59075;DHT22;44860;53.020;6.738;2023-07-24T06:40:09;17.50;99.90
59075;DHT22;44860;53.020;6.738;2023-07-24T06:42:35;17.50;99.90
59075;DHT22;44860;53.020;6.738;2023-07-24T06:45:01;17.50;99.90
59075;DHT22;44860;53.020;6.738;2023-07-24T06:47:26;17.50;99.90
59075;DHT22;44860;53.020;6.738;2023-07-24T06:49:52;17.60;99.90
59075;DHT22;44860;53.020;6.738;2023-07-24T06:52:18;17.60;99.90
59075;DHT22;44860;53.020;6.738;2023-07-24T06:54:44;17.60;99.90
59075;DHT22;44860;53.020;6.738;2023-07-24T06:57:09;17.60;99.90
59075;DHT22;44860;53.020;6.738;2023-07-24T06:59:35;17.70;99.90
59075;DHT22;44860;53.020;6.738;2023-07-24T07:02:01;17.70;99.90
59075;DHT22;44860;53.020;6.738;2023-07-24T07:04:26;17.80;99.90
59075;DHT22;44860;53.020;6.738;2023-07-24T07:06:52;17.80;99.90
59075;DHT22;44860;53.020;6.738;2023-07-24T07:09:18;17.80;99.90
59075;DHT22;44860;53.020;6.738;2023-07-24T07:11:43;17.80;99.90
59075;DHT22;44860;53.020;6.738;2023-07-24T07:14:10;17.90;99.90
59075;DHT22;44860;53.020;6.738;2023-07-24T07:16:36;17.90;99.90
59075;DHT22;44860;53.020;6.738;2023-07-24T07:19:01;18.00;99.90
59075;DHT22;44860;53.020;6.738;2023-07-24T07:21:27;18.00;99.90
59075;DHT22;44860;53.020;6.738;2023-07-24T07:23:53;18.00;99.90
59075;DHT22;44860;53.020;6.738;2023-07-24T07:26:19;18.10;99.90
59075;DHT22;44860;53.020;6.738;2023-07-24T07:28:44;18.10;99.90
59075;DHT22;44860;53.020;6.738;2023-07-24T07:31:10;18.10;99.90
59075;DHT22;44860;53.020;6.738;2023-07-24T07:33:36;18.20;99.90
59075;DHT22;44860;53.020;6.738;2023-07-24T07:36:02;18.20;99.90
59075;DHT22;44860;53.020;6.738;2023-07-24T07:38:29;18.30;99.90
59075;DHT22;44860;53.020;6.738;2023-07-24T07:40:55;18.30;99.90
59075;DHT22;44860;53.020;6.738;2023-07-24T07:43:21;18.40;99.90
59075;DHT22;44860;53.020;6.738;2023-07-24T07:45:47;18.40;99.90
59075;DHT22;44860;53.020;6.738;2023-07-24T07:48:13;18.50;99.90
59075;DHT22;44860;53.020;6.738;2023-07-24T07:50:39;18.50;99.90
59075;DHT22;44860;53.020;6.738;2023-07-24T07:53:05;18.50;99.90
59075;DHT22;44860;53.020;6.738;2023-07-24T07:55:32;18.60;99.90
59075;DHT22;44860;53.020;6.738;2023-07-24T07:58:01;18.60;99.90
59075;DHT22;44860;53.020;6.738;2023-07-24T08:00:27;18.60;99.90
59075;DHT22;44860;53.020;6.738;2023-07-24T08:02:55;18.70;99.90
59075;DHT22;44860;53.020;6.738;2023-07-24T08:05:20;18.70;99.90
59075;DHT22;44860;53.020;6.738;2023-07-24T08:07:46;18.80;99.90
59075;DHT22;44860;53.020;6.738;2023-07-24T08:10:12;18.80;99.90
59075;DHT22;44860;53.020;6.738;2023-07-24T08:12:40;18.90;99.90
59075;DHT22;44860;53.020;6.738;2023-07-24T08:15:06;18.90;99.90
59075;DHT22;44860;53.020;6.738;2023-07-24T08:17:32;19.00;99.90
59075;DHT22;44860;53.020;6.738;2023-07-24T08:19:58;19.00;99.90
59075;DHT22;44860;53.020;6.738;2023-07-24T08:22:23;19.00;99.90
59075;DHT22;44860;53.020;6.738;2023-07-24T08:24:49;19.10;99.90
59075;DHT22;44860;53.020;6.738;2023-07-24T08:27:17;19.10;99.90
59075;DHT22;44860;53.020;6.738;2023-07-24T08:29:42;19.20;99.90
59075;DHT22;44860;53.020;6.738;2023-07-24T08:32:08;19.20;99.90
59075;DHT22;44860;53.020;6.738;2023-07-24T08:34:34;19.30;99.90
59075;DHT22;44860;53.020;6.738;2023-07-24T08:36:59;19.30;99.90
59075;DHT22;44860;53.020;6.738;2023-07-24T08:39:25;19.40;99.90
59075;DHT22;44860;53.020;6.738;2023-07-24T08:41:51;19.40;99.90
59075;DHT22;44860;53.020;6.738;2023-07-24T08:44:17;19.40;99.90
59075;DHT22;44860;53.020;6.738;2023-07-24T08:46:43;19.40;99.90
59075;DHT22;44860;53.020;6.738;2023-07-24T08:49:14;19.50;99.90
59075;DHT22;44860;53.020;6.738;2023-07-24T08:51:41;19.50;99.90
59075;DHT22;44860;53.020;6.738;2023-07-24T08:54:08;19.50;99.90
59075;DHT22;44860;53.020;6.738;2023-07-24T08:56:33;19.60;99.90
59075;DHT22;44860;53.020;6.738;2023-07-24T08:59:01;19.60;99.90
59075;DHT22;44860;53.020;6.738;2023-07-24T09:01:27;19.60;99.90
59075;DHT22;44860;53.020;6.738;2023-07-24T09:03:52;19.70;99.90
59075;DHT22;44860;53.020;6.738;2023-07-24T09:06:18;19.70;99.90
59075;DHT22;44860;53.020;6.738;2023-07-24T09:08:44;19.70;99.90
59075;DHT22;44860;53.020;6.738;2023-07-24T09:11:11;19.80;99.90
59075;DHT22;44860;53.020;6.738;2023-07-24T09:13:41;19.80;99.90
59075;DHT22;44860;53.020;6.738;2023-07-24T09:16:08;19.90;99.90
59075;DHT22;44860;53.020;6.738;2023-07-24T09:18:41;19.90;99.90
59075;DHT22;44860;53.020;6.738;2023-07-24T09:21:08;20.00;99.90
59075;DHT22;44860;53.020;6.738;2023-07-24T09:23:34;20.10;99.90
59075;DHT22;44860;53.020;6.738;2023-07-24T09:26:05;20.10;99.90
59075;DHT22;44860;53.020;6.738;2023-07-24T09:28:33;20.20;99.90
59075;DHT22;44860;53.020;6.738;2023-07-24T09:30:59;20.30;99.90
59075;DHT22;44860;53.020;6.738;2023-07-24T09:33:40;20.30;99.90
59075;DHT22;44860;53.020;6.738;2023-07-24T09:36:07;20.40;99.90
59075;DHT22;44860;53.020;6.738;2023-07-24T09:38:37;20.50;99.90
59075;DHT22;44860;53.020;6.738;2023-07-24T09:41:03;20.60;99.90
59075;DHT22;44860;53.020;6.738;2023-07-24T09:43:30;20.70;99.90
59075;DHT22;44860;53.020;6.738;2023-07-24T09:45:56;20.80;99.90
59075;DHT22;44860;53.020;6.738;2023-07-24T09:48:24;20.80;99.90
59075;DHT22;44860;53.020;6.738;2023-07-24T09:50:54;20.90;99.90
59075;DHT22;44860;53.020;6.738;2023-07-24T09:53:33;21.00;99.90
59075;DHT22;44860;53.020;6.738;2023-07-24T09:56:05;21.00;99.90
59075;DHT22;44860;53.020;6.738;2023-07-24T09:58:33;21.10;99.90
59075;DHT22;44860;53.020;6.738;2023-07-24T10:01:02;21.20;99.90
59075;DHT22;44860;53.020;6.738;2023-07-24T10:03:29;21.20;99.90
59075;DHT22;44860;53.020;6.738;2023-07-24T10:05:55;21.30;99.90
59075;DHT22;44860;53.020;6.738;2023-07-24T10:08:21;21.50;99.90
59075;DHT22;44860;53.020;6.738;2023-07-24T10:10:48;21.60;99.90
59075;DHT22;44860;53.020;6.738;2023-07-24T10:13:17;21.60;99.90
59075;DHT22;44860;53.020;6.738;2023-07-24T10:15:45;21.70;99.90
59075;DHT22;44860;53.020;6.738;2023-07-24T10:18:11;21.70;99.90
59075;DHT22;44860;53.020;6.738;2023-07-24T10:20:39;21.80;99.90
59075;DHT22;44860;53.020;6.738;2023-07-24T10:23:10;21.90;99.90
59075;DHT22;44860;53.020;6.738;2023-07-24T10:25:38;22.00;99.90
59075;DHT22;44860;53.020;6.738;2023-07-24T10:28:10;22.10;99.90
59075;DHT22;44860;53.020;6.738;2023-07-24T10:30:40;22.20;99.90
59075;DHT22;44860;53.020;6.738;2023-07-24T10:33:11;22.40;99.90
59075;DHT22;44860;53.020;6.738;2023-07-24T10:35:54;22.40;99.90
59075;DHT22;44860;53.020;6.738;2023-07-24T10:38:33;22.50;99.90
59075;DHT22;44860;53.020;6.738;2023-07-24T10:41:02;22.50;99.90
59075;DHT22;44860;53.020;6.738;2023-07-24T10:43:49;22.50;99.90
59075;DHT22;44860;53.020;6.738;2023-07-24T10:46:19;22.50;99.90
59075;DHT22;44860;53.020;6.738;2023-07-24T10:48:47;22.60;99.90
59075;DHT22;44860;53.020;6.738;2023-07-24T10:51:14;22.60;99.90
59075;DHT22;44860;53.020;6.738;2023-07-24T10:53:49;22.60;99.90
59075;DHT22;44860;53.020;6.738;2023-07-24T10:56:15;22.70;99.90
59075;DHT22;44860;53.020;6.738;2023-07-24T10:58:41;22.80;99.90
59075;DHT22;44860;53.020;6.738;2023-07-24T11:01:10;22.90;99.90
59075;DHT22;44860;53.020;6.738;2023-07-24T11:03:40;23.00;99.90
59075;DHT22;44860;53.020;6.738;2023-07-24T11:06:13;23.00;99.90
59075;DHT22;44860;53.020;6.738;2023-07-24T11:08:39;23.10;99.90
59075;DHT22;44860;53.020;6.738;2023-07-24T11:11:07;23.10;99.90
59075;DHT22;44860;53.020;6.738;2023-07-24T11:13:32;23.10;99.90
59075;DHT22;44860;53.020;6.738;2023-07-24T11:16:04;23.10;99.90
59075;DHT22;44860;53.020;6.738;2023-07-24T11:18:30;23.10;99.90
59075;DHT22;44860;53.020;6.738;2023-07-24T11:20:56;23.10;99.90
59075;DHT22;44860;53.020;6.738;2023-07-24T11:23:25;23.10;99.90
59075;DHT22;44860;53.020;6.738;2023-07-24T11:25:52;23.00;99.90
59075;DHT22;44860;53.020;6.738;2023-07-24T11:28:18;23.00;99.90
59075;DHT22;44860;53.020;6.738;2023-07-24T11:30:44;23.00;99.90
59075;DHT22;44860;53.020;6.738;2023-07-24T11:33:12;22.90;99.90
59075;DHT22;44860;53.020;6.738;2023-07-24T11:35:40;22.90;99.90
59075;DHT22;44860;53.020;6.738;2023-07-24T11:38:08;22.80;99.90
59075;DHT22;44860;53.020;6.738;2023-07-24T11:40:39;22.70;99.90
59075;DHT22;44860;53.020;6.738;2023-07-24T11:43:18;22.70;99.90
59075;DHT22;44860;53.020;6.738;2023-07-24T11:45:45;22.70;99.90
59075;DHT22;44860;53.020;6.738;2023-07-24T11:48:12;22.70;99.90
59075;DHT22;44860;53.020;6.738;2023-07-24T11:50:48;22.80;99.90
59075;DHT22;44860;53.020;6.738;2023-07-24T11:53:27;22.80;99.90
59075;DHT22;44860;53.020;6.738;2023-07-24T11:55:56;22.70;99.90
59075;DHT22;44860;53.020;6.738;2023-07-24T11:58:25;22.60;99.90
59075;DHT22;44860;53.020;6.738;2023-07-24T12:00:51;22.60;99.90
59075;DHT22;44860;53.020;6.738;2023-07-24T12:03:28;22.60;99.90
59075;DHT22;44860;53.020;6.738;2023-07-24T12:05:54;22.60;99.90
59075;DHT22;44860;53.020;6.738;2023-07-24T12:08:21;22.50;99.90
59075;DHT22;44860;53.020;6.738;2023-07-24T12:10:54;22.60;99.90
59075;DHT22;44860;53.020;6.738;2023-07-24T12:13:20;22.60;99.90
59075;DHT22;44860;53.020;6.738;2023-07-24T12:15:45;22.60;99.90
59075;DHT22;44860;53.020;6.738;2023-07-24T12:18:11;22.70;99.90
59075;DHT22;44860;53.020;6.738;2023-07-24T12:20:37;22.70;99.90
59075;DHT22;44860;53.020;6.738;2023-07-24T12:23:02;22.70;99.90
59075;DHT22;44860;53.020;6.738;2023-07-24T12:25:28;22.80;99.90
59075;DHT22;44860;53.020;6.738;2023-07-24T12:27:54;22.90;99.90
59075;DHT22;44860;53.020;6.738;2023-07-24T12:30:19;22.90;99.90
59075;DHT22;44860;53.020;6.738;2023-07-24T12:32:45;22.90;99.90
59075;DHT22;44860;53.020;6.738;2023-07-24T12:35:11;22.90;99.90
59075;DHT22;44860;53.020;6.738;2023-07-24T12:37:37;23.00;99.90
59075;DHT22;44860;53.020;6.738;2023-07-24T12:40:05;23.10;99.90
59075;DHT22;44860;53.020;6.738;2023-07-24T12:42:31;23.10;99.90
59075;DHT22;44860;53.020;6.738;2023-07-24T12:44:56;23.20;99.90
59075;DHT22;44860;53.020;6.738;2023-07-24T12:47:24;23.20;99.90
59075;DHT22;44860;53.020;6.738;2023-07-24T12:49:50;23.20;99.90
59075;DHT22;44860;53.020;6.738;2023-07-24T12:52:18;23.20;99.90
59075;DHT22;44860;53.020;6.738;2023-07-24T12:54:43;23.30;99.90
59075;DHT22;44860;53.020;6.738;2023-07-24T12:57:09;23.30;97.80
59075;DHT22;44860;53.020;6.738;2023-07-24T12:59:35;23.30;99.10
59075;DHT22;44860;53.020;6.738;2023-07-24T13:02:00;23.10;99.20
59075;DHT22;44860;53.020;6.738;2023-07-24T13:04:26;22.80;99.90
59075;DHT22;44860;53.020;6.738;2023-07-24T13:06:51;22.60;99.90
59075;DHT22;44860;53.020;6.738;2023-07-24T13:09:19;22.40;99.90
59075;DHT22;44860;53.020;6.738;2023-07-24T13:11:45;22.10;99.90
59075;DHT22;44860;53.020;6.738;2023-07-24T13:14:13;22.00;99.90
59075;DHT22;44860;53.020;6.738;2023-07-24T13:16:38;21.70;99.90
59075;DHT22;44860;53.020;6.738;2023-07-24T13:19:04;21.70;99.90
59075;DHT22;44860;53.020;6.738;2023-07-24T13:21:30;21.60;99.90
59075;DHT22;44860;53.020;6.738;2023-07-24T13:23:55;21.50;99.90
59075;DHT22;44860;53.020;6.738;2023-07-24T13:26:21;21.40;99.90
59075;DHT22;44860;53.020;6.738;2023-07-24T13:28:47;21.40;99.90
59075;DHT22;44860;53.020;6.738;2023-07-24T13:31:14;21.30;99.90
59075;DHT22;44860;53.020;6.738;2023-07-24T13:36:18;21.30;99.90
59075;DHT22;44860;53.020;6.738;2023-07-24T13:38:44;21.20;99.90
59075;DHT22;44860;53.020;6.738;2023-07-24T13:41:09;21.10;99.90
59075;DHT22;44860;53.020;6.738;2023-07-24T13:43:35;21.00;99.90
59075;DHT22;44860;53.020;6.738;2023-07-24T13:46:01;20.90;99.90
59075;DHT22;44860;53.020;6.738;2023-07-24T13:48:28;20.90;99.90
59075;DHT22;44860;53.020;6.738;2023-07-24T13:50:54;20.80;99.90
59075;DHT22;44860;53.020;6.738;2023-07-24T13:53:21;20.70;99.90
59075;DHT22;44860;53.020;6.738;2023-07-24T13:55:47;20.70;99.90
59075;DHT22;44860;53.020;6.738;2023-07-24T13:58:13;20.50;99.90
59075;DHT22;44860;53.020;6.738;2023-07-24T14:00:39;20.50;99.90
59075;DHT22;44860;53.020;6.738;2023-07-24T14:03:04;20.40;99.90
59075;DHT22;44860;53.020;6.738;2023-07-24T14:05:30;20.30;99.90
59075;DHT22;44860;53.020;6.738;2023-07-24T14:07:56;20.20;99.90
59075;DHT22;44860;53.020;6.738;2023-07-24T14:10:22;20.20;99.90
59075;DHT22;44860;53.020;6.738;2023-07-24T14:12:47;20.10;99.90
59075;DHT22;44860;53.020;6.738;2023-07-24T14:15:13;20.10;99.90
59075;DHT22;44860;53.020;6.738;2023-07-24T14:17:39;20.10;99.90
59075;DHT22;44860;53.020;6.738;2023-07-24T14:20:05;20.10;99.90
59075;DHT22;44860;53.020;6.738;2023-07-24T14:22:31;20.10;99.90
59075;DHT22;44860;53.020;6.738;2023-07-24T14:24:57;20.00;99.90
59075;DHT22;44860;53.020;6.738;2023-07-24T14:27:23;20.00;99.90
59075;DHT22;44860;53.020;6.738;2023-07-24T14:29:48;20.00;99.90
59075;DHT22;44860;53.020;6.738;2023-07-24T14:32:14;20.00;99.90
59075;DHT22;44860;53.020;6.738;2023-07-24T14:34:41;20.00;99.90
59075;DHT22;44860;53.020;6.738;2023-07-24T14:37:07;19.90;99.90
59075;DHT22;44860;53.020;6.738;2023-07-24T14:39:33;19.90;99.90
59075;DHT22;44860;53.020;6.738;2023-07-24T14:41:59;19.90;99.90
59075;DHT22;44860;53.020;6.738;2023-07-24T14:44:25;19.90;99.90
59075;DHT22;44860;53.020;6.738;2023-07-24T14:46:51;19.90;99.90
59075;DHT22;44860;53.020;6.738;2023-07-24T14:49:17;19.90;99.90
59075;DHT22;44860;53.020;6.738;2023-07-24T14:51:42;19.80;99.90
59075;DHT22;44860;53.020;6.738;2023-07-24T14:54:08;19.80;99.90
59075;DHT22;44860;53.020;6.738;2023-07-24T14:56:34;19.80;99.90
59075;DHT22;44860;53.020;6.738;2023-07-24T14:58:59;19.80;99.90
59075;DHT22;44860;53.020;6.738;2023-07-24T15:01:26;19.80;99.90
59075;DHT22;44860;53.020;6.738;2023-07-24T15:03:53;19.80;99.90
59075;DHT22;44860;53.020;6.738;2023-07-24T15:06:19;19.70;99.90
59075;DHT22;44860;53.020;6.738;2023-07-24T15:08:44;19.70;99.90
59075;DHT22;44860;53.020;6.738;2023-07-24T15:11:10;19.70;99.90
59075;DHT22;44860;53.020;6.738;2023-07-24T15:13:38;19.60;99.90
59075;DHT22;44860;53.020;6.738;2023-07-24T15:16:04;19.70;99.90
59075;DHT22;44860;53.020;6.738;2023-07-24T15:18:29;19.70;99.90
59075;DHT22;44860;53.020;6.738;2023-07-24T15:20:55;19.90;99.90
59075;DHT22;44860;53.020;6.738;2023-07-24T15:23:21;19.90;99.90
59075;DHT22;44860;53.020;6.738;2023-07-24T15:25:47;19.90;99.90
59075;DHT22;44860;53.020;6.738;2023-07-24T15:28:12;19.90;99.90
59075;DHT22;44860;53.020;6.738;2023-07-24T15:30:39;19.90;99.90
59075;DHT22;44860;53.020;6.738;2023-07-24T15:33:04;19.90;99.90
59075;DHT22;44860;53.020;6.738;2023-07-24T15:35:30;19.80;99.90